sensor_id;sensor_type;location;lat;lon;timestamp;P1;durP1;ratioP1;P2;durP2;ratioP2
41572;SDS011;27286;47.870;19.006;2023-11-21T00:00:43;7.57;;;1.38;;
41572;SDS011;27286;47.870;19.006;2023-11-21T00:03:10;6.22;;;1.50;;
41572;SDS011;27286;47.870;19.006;2023-11-21T00:05:39;4.32;;;0.80;;
41572;SDS011;27286;47.870;19.006;2023-11-21T00:08:06;6.00;;;1.25;;
41572;SDS011;27286;47.870;19.006;2023-11-21T00:10:32;4.93;;;1.10;;
41572;SDS011;27286;47.870;19.006;2023-11-21T00:12:58;4.63;;;1.70;;
41572;SDS011;27286;47.870;19.006;2023-11-21T00:15:23;3.78;;;1.17;;
41572;SDS011;27286;47.870;19.006;2023-11-21T00:17:49;5.85;;;1.45;;
41572;SDS011;27286;47.870;19.006;2023-11-21T00:20:14;2.97;;;0.88;;
41572;SDS011;27286;47.870;19.006;2023-11-21T00:22:40;3.70;;;0.77;;
41572;SDS011;27286;47.870;19.006;2023-11-21T00:25:06;3.25;;;0.70;;
41572;SDS011;27286;47.870;19.006;2023-11-21T00:27:34;7.82;;;1.08;;
41572;SDS011;27286;47.870;19.006;2023-11-21T00:30:00;5.28;;;1.00;;
41572;SDS011;27286;47.870;19.006;2023-11-21T00:32:25;13.18;;;1.30;;
41572;SDS011;27286;47.870;19.006;2023-11-21T00:34:51;4.72;;;1.15;;
41572;SDS011;27286;47.870;19.006;2023-11-21T00:37:16;5.88;;;1.48;;
41572;SDS011;27286;47.870;19.006;2023-11-21T00:39:41;8.50;;;1.33;;
41572;SDS011;27286;47.870;19.006;2023-11-21T00:42:07;2.67;;;0.88;;
41572;SDS011;27286;47.870;19.006;2023-11-21T00:44:33;6.57;;;1.85;;
41572;SDS011;27286;47.870;19.006;2023-11-21T00:46:59;15.77;;;2.90;;
41572;SDS011;27286;47.870;19.006;2023-11-21T00:49:25;9.73;;;2.40;;
41572;SDS011;27286;47.870;19.006;2023-11-21T00:51:50;11.50;;;2.72;;
41572;SDS011;27286;47.870;19.006;2023-11-21T00:54:15;8.93;;;2.40;;
41572;SDS011;27286;47.870;19.006;2023-11-21T00:56:42;8.20;;;2.53;;
41572;SDS011;27286;47.870;19.006;2023-11-21T00:59:07;7.07;;;2.17;;
41572;SDS011;27286;47.870;19.006;2023-11-21T01:01:33;8.25;;;2.55;;
41572;SDS011;27286;47.870;19.006;2023-11-21T01:03:58;13.18;;;2.47;;
41572;SDS011;27286;47.870;19.006;2023-11-21T01:06:24;10.48;;;2.78;;
41572;SDS011;27286;47.870;19.006;2023-11-21T01:08:49;5.10;;;2.10;;
41572;SDS011;27286;47.870;19.006;2023-11-21T01:11:14;6.00;;;1.75;;
41572;SDS011;27286;47.870;19.006;2023-11-21T01:13:40;5.57;;;2.08;;
41572;SDS011;27286;47.870;19.006;2023-11-21T01:16:06;15.48;;;2.45;;
41572;SDS011;27286;47.870;19.006;2023-11-21T01:18:32;5.60;;;1.83;;
41572;SDS011;27286;47.870;19.006;2023-11-21T01:20:58;4.32;;;2.08;;
41572;SDS011;27286;47.870;19.006;2023-11-21T01:23:25;4.90;;;1.70;;
41572;SDS011;27286;47.870;19.006;2023-11-21T01:25:51;6.95;;;2.05;;
41572;SDS011;27286;47.870;19.006;2023-11-21T01:28:17;6.10;;;2.25;;
41572;SDS011;27286;47.870;19.006;2023-11-21T01:30:43;5.75;;;1.55;;
41572;SDS011;27286;47.870;19.006;2023-11-21T01:33:09;4.65;;;1.20;;
41572;SDS011;27286;47.870;19.006;2023-11-21T01:35:35;4.28;;;1.50;;
41572;SDS011;27286;47.870;19.006;2023-11-21T01:38:01;5.70;;;1.33;;
41572;SDS011;27286;47.870;19.006;2023-11-21T01:40:26;12.38;;;2.10;;
41572;SDS011;27286;47.870;19.006;2023-11-21T01:42:53;5.80;;;1.52;;
41572;SDS011;27286;47.870;19.006;2023-11-21T01:45:19;3.55;;;0.95;;
41572;SDS011;27286;47.870;19.006;2023-11-21T01:47:45;5.82;;;1.92;;
41572;SDS011;27286;47.870;19.006;2023-11-21T01:50:13;5.65;;;1.30;;
41572;SDS011;27286;47.870;19.006;2023-11-21T01:52:41;3.33;;;0.80;;
41572;SDS011;27286;47.870;19.006;2023-11-21T01:55:09;4.80;;;1.55;;
41572;SDS011;27286;47.870;19.006;2023-11-21T01:57:37;5.32;;;1.33;;
41572;SDS011;27286;47.870;19.006;2023-11-21T02:00:02;7.72;;;1.30;;
41572;SDS011;27286;47.870;19.006;2023-11-21T02:02:44;5.97;;;1.65;;
41572;SDS011;27286;47.870;19.006;2023-11-21T02:05:11;6.50;;;1.48;;
41572;SDS011;27286;47.870;19.006;2023-11-21T02:07:40;7.43;;;1.00;;
41572;SDS011;27286;47.870;19.006;2023-11-21T02:10:07;2.90;;;0.90;;
41572;SDS011;27286;47.870;19.006;2023-11-21T02:12:33;3.47;;;1.50;;
41572;SDS011;27286;47.870;19.006;2023-11-21T02:15:05;7.93;;;1.05;;
41572;SDS011;27286;47.870;19.006;2023-11-21T02:17:35;7.15;;;1.20;;
41572;SDS011;27286;47.870;19.006;2023-11-21T02:20:01;3.55;;;0.63;;
41572;SDS011;27286;47.870;19.006;2023-11-21T02:22:27;4.22;;;0.80;;
41572;SDS011;27286;47.870;19.006;2023-11-21T02:24:57;7.93;;;0.98;;
41572;SDS011;27286;47.870;19.006;2023-11-21T02:27:23;3.72;;;0.73;;
41572;SDS011;27286;47.870;19.006;2023-11-21T02:29:49;6.80;;;1.20;;
41572;SDS011;27286;47.870;19.006;2023-11-21T02:32:14;5.20;;;1.23;;
41572;SDS011;27286;47.870;19.006;2023-11-21T02:34:42;3.63;;;1.13;;
41572;SDS011;27286;47.870;19.006;2023-11-21T02:37:08;2.10;;;1.00;;
41572;SDS011;27286;47.870;19.006;2023-11-21T02:39:34;6.78;;;1.02;;
41572;SDS011;27286;47.870;19.006;2023-11-21T02:41:59;3.90;;;0.65;;
41572;SDS011;27286;47.870;19.006;2023-11-21T02:44:25;3.03;;;0.68;;
41572;SDS011;27286;47.870;19.006;2023-11-21T02:46:51;3.25;;;0.70;;
41572;SDS011;27286;47.870;19.006;2023-11-21T02:49:16;5.80;;;0.88;;
41572;SDS011;27286;47.870;19.006;2023-11-21T02:51:42;3.15;;;0.77;;
41572;SDS011;27286;47.870;19.006;2023-11-21T02:54:07;3.05;;;0.73;;
41572;SDS011;27286;47.870;19.006;2023-11-21T02:56:33;12.10;;;1.08;;
41572;SDS011;27286;47.870;19.006;2023-11-21T02:58:59;4.15;;;1.02;;
41572;SDS011;27286;47.870;19.006;2023-11-21T03:01:25;5.47;;;0.93;;
41572;SDS011;27286;47.870;19.006;2023-11-21T03:03:52;5.40;;;1.85;;
41572;SDS011;27286;47.870;19.006;2023-11-21T03:06:18;3.38;;;1.00;;
41572;SDS011;27286;47.870;19.006;2023-11-21T03:08:44;4.30;;;1.25;;
41572;SDS011;27286;47.870;19.006;2023-11-21T03:11:10;7.40;;;1.42;;
41572;SDS011;27286;47.870;19.006;2023-11-21T03:13:35;3.88;;;1.45;;
41572;SDS011;27286;47.870;19.006;2023-11-21T03:16:01;5.57;;;1.73;;
41572;SDS011;27286;47.870;19.006;2023-11-21T03:18:26;8.73;;;2.28;;
41572;SDS011;27286;47.870;19.006;2023-11-21T03:20:54;11.50;;;3.42;;
41572;SDS011;27286;47.870;19.006;2023-11-21T03:23:19;6.70;;;2.15;;
41572;SDS011;27286;47.870;19.006;2023-11-21T03:25:45;8.25;;;2.70;;
41572;SDS011;27286;47.870;19.006;2023-11-21T03:28:10;6.03;;;2.13;;
41572;SDS011;27286;47.870;19.006;2023-11-21T03:30:36;5.25;;;1.55;;
41572;SDS011;27286;47.870;19.006;2023-11-21T03:33:01;9.93;;;2.92;;
41572;SDS011;27286;47.870;19.006;2023-11-21T03:35:27;6.38;;;1.67;;
41572;SDS011;27286;47.870;19.006;2023-11-21T03:37:53;4.72;;;1.70;;
41572;SDS011;27286;47.870;19.006;2023-11-21T03:40:18;6.70;;;1.85;;
41572;SDS011;27286;47.870;19.006;2023-11-21T03:42:45;3.20;;;1.00;;
41572;SDS011;27286;47.870;19.006;2023-11-21T03:45:11;8.35;;;1.92;;
41572;SDS011;27286;47.870;19.006;2023-11-21T03:47:37;5.85;;;1.67;;
41572;SDS011;27286;47.870;19.006;2023-11-21T03:50:02;7.05;;;2.70;;
41572;SDS011;27286;47.870;19.006;2023-11-21T03:52:29;5.25;;;1.92;;
41572;SDS011;27286;47.870;19.006;2023-11-21T03:54:55;12.43;;;2.20;;
41572;SDS011;27286;47.870;19.006;2023-11-21T03:57:20;6.60;;;2.20;;
41572;SDS011;27286;47.870;19.006;2023-11-21T03:59:46;6.78;;;2.05;;
41572;SDS011;27286;47.870;19.006;2023-11-21T04:02:11;7.07;;;1.33;;
41572;SDS011;27286;47.870;19.006;2023-11-21T04:04:37;7.47;;;1.35;;
41572;SDS011;27286;47.870;19.006;2023-11-21T04:07:03;3.45;;;0.80;;
41572;SDS011;27286;47.870;19.006;2023-11-21T04:09:29;2.42;;;0.80;;
41572;SDS011;27286;47.870;19.006;2023-11-21T04:11:54;4.43;;;0.88;;
41572;SDS011;27286;47.870;19.006;2023-11-21T04:14:22;3.15;;;1.08;;
41572;SDS011;27286;47.870;19.006;2023-11-21T04:17:18;4.78;;;1.00;;
41572;SDS011;27286;47.870;19.006;2023-11-21T04:20:21;5.03;;;0.70;;
41572;SDS011;27286;47.870;19.006;2023-11-21T04:23:15;4.55;;;1.90;;
41572;SDS011;27286;47.870;19.006;2023-11-21T04:26:07;8.80;;;1.00;;
41572;SDS011;27286;47.870;19.006;2023-11-21T04:32:54;5.68;;;0.93;;
41572;SDS011;27286;47.870;19.006;2023-11-21T04:36:07;12.07;;;0.98;;
41572;SDS011;27286;47.870;19.006;2023-11-21T04:39:35;7.47;;;1.80;;
41572;SDS011;27286;47.870;19.006;2023-11-21T04:43:02;4.15;;;1.05;;
41572;SDS011;27286;47.870;19.006;2023-11-21T04:46:46;6.18;;;1.70;;
41572;SDS011;27286;47.870;19.006;2023-11-21T04:50:17;6.20;;;2.05;;
41572;SDS011;27286;47.870;19.006;2023-11-21T04:53:15;14.18;;;5.05;;
41572;SDS011;27286;47.870;19.006;2023-11-21T05:00:09;10.55;;;2.83;;
41572;SDS011;27286;47.870;19.006;2023-11-21T05:03:27;5.15;;;2.45;;
41572;SDS011;27286;47.870;19.006;2023-11-21T05:06:26;9.20;;;2.72;;
41572;SDS011;27286;47.870;19.006;2023-11-21T05:09:19;5.20;;;1.60;;
41572;SDS011;27286;47.870;19.006;2023-11-21T05:11:58;6.03;;;0.77;;
41572;SDS011;27286;47.870;19.006;2023-11-21T05:18:15;5.38;;;2.10;;
41572;SDS011;27286;47.870;19.006;2023-11-21T05:22:01;4.40;;;1.10;;
41572;SDS011;27286;47.870;19.006;2023-11-21T05:28:48;5.68;;;0.93;;
41572;SDS011;27286;47.870;19.006;2023-11-21T05:32:10;5.10;;;1.40;;
41572;SDS011;27286;47.870;19.006;2023-11-21T05:35:31;8.68;;;4.30;;
41572;SDS011;27286;47.870;19.006;2023-11-21T05:38:35;6.07;;;3.47;;
41572;SDS011;27286;47.870;19.006;2023-11-21T05:41:47;8.15;;;3.28;;
41572;SDS011;27286;47.870;19.006;2023-11-21T05:44:14;9.38;;;3.42;;
41572;SDS011;27286;47.870;19.006;2023-11-21T05:46:43;8.43;;;2.83;;
41572;SDS011;27286;47.870;19.006;2023-11-21T05:49:13;5.40;;;2.58;;
41572;SDS011;27286;47.870;19.006;2023-11-21T05:51:46;9.88;;;3.20;;
41572;SDS011;27286;47.870;19.006;2023-11-21T05:54:40;6.32;;;2.22;;
41572;SDS011;27286;47.870;19.006;2023-11-21T05:58:07;9.75;;;2.97;;
41572;SDS011;27286;47.870;19.006;2023-11-21T06:00:49;8.18;;;3.50;;
41572;SDS011;27286;47.870;19.006;2023-11-21T06:03:21;6.75;;;3.70;;
41572;SDS011;27286;47.870;19.006;2023-11-21T06:06:19;7.80;;;2.65;;
41572;SDS011;27286;47.870;19.006;2023-11-21T06:09:20;7.18;;;2.17;;
41572;SDS011;27286;47.870;19.006;2023-11-21T06:12:09;8.38;;;1.88;;
41572;SDS011;27286;47.870;19.006;2023-11-21T06:14:56;9.88;;;2.53;;
41572;SDS011;27286;47.870;19.006;2023-11-21T06:17:48;7.20;;;3.00;;
41572;SDS011;27286;47.870;19.006;2023-11-21T06:20:31;8.80;;;2.53;;
41572;SDS011;27286;47.870;19.006;2023-11-21T06:23:30;8.52;;;3.85;;
41572;SDS011;27286;47.870;19.006;2023-11-21T06:26:05;5.83;;;2.43;;
41572;SDS011;27286;47.870;19.006;2023-11-21T06:28:40;6.63;;;3.15;;
41572;SDS011;27286;47.870;19.006;2023-11-21T06:31:16;6.65;;;3.22;;
41572;SDS011;27286;47.870;19.006;2023-11-21T06:33:44;8.45;;;4.45;;
41572;SDS011;27286;47.870;19.006;2023-11-21T06:36:38;6.70;;;3.00;;
41572;SDS011;27286;47.870;19.006;2023-11-21T06:39:34;7.80;;;3.95;;
41572;SDS011;27286;47.870;19.006;2023-11-21T06:42:49;9.20;;;4.65;;
41572;SDS011;27286;47.870;19.006;2023-11-21T06:45:38;10.82;;;4.20;;
41572;SDS011;27286;47.870;19.006;2023-11-21T06:48:18;4.80;;;1.33;;
41572;SDS011;27286;47.870;19.006;2023-11-21T06:50:49;7.38;;;2.00;;
41572;SDS011;27286;47.870;19.006;2023-11-21T06:53:14;8.30;;;1.85;;
41572;SDS011;27286;47.870;19.006;2023-11-21T06:55:45;5.13;;;1.50;;
41572;SDS011;27286;47.870;19.006;2023-11-21T06:58:16;4.57;;;0.95;;
41572;SDS011;27286;47.870;19.006;2023-11-21T07:01:26;4.40;;;1.58;;
41572;SDS011;27286;47.870;19.006;2023-11-21T07:04:27;10.15;;;2.28;;
41572;SDS011;27286;47.870;19.006;2023-11-21T07:07:54;7.70;;;2.33;;
41572;SDS011;27286;47.870;19.006;2023-11-21T07:17:27;9.90;;;4.82;;
41572;SDS011;27286;47.870;19.006;2023-11-21T07:20:41;10.27;;;4.80;;
41572;SDS011;27286;47.870;19.006;2023-11-21T07:23:53;11.38;;;6.05;;
41572;SDS011;27286;47.870;19.006;2023-11-21T07:30:16;6.63;;;3.20;;
41572;SDS011;27286;47.870;19.006;2023-11-21T07:33:03;9.02;;;4.30;;
41572;SDS011;27286;47.870;19.006;2023-11-21T07:35:30;14.20;;;3.80;;
41572;SDS011;27286;47.870;19.006;2023-11-21T07:38:03;7.90;;;3.43;;
41572;SDS011;27286;47.870;19.006;2023-11-21T07:40:28;10.20;;;4.97;;
41572;SDS011;27286;47.870;19.006;2023-11-21T07:42:56;12.27;;;5.43;;
41572;SDS011;27286;47.870;19.006;2023-11-21T07:45:22;11.32;;;4.15;;
41572;SDS011;27286;47.870;19.006;2023-11-21T07:47:48;8.43;;;3.63;;
41572;SDS011;27286;47.870;19.006;2023-11-21T07:50:13;12.48;;;4.18;;
41572;SDS011;27286;47.870;19.006;2023-11-21T07:52:39;10.02;;;4.20;;
41572;SDS011;27286;47.870;19.006;2023-11-21T07:55:04;13.50;;;4.70;;
41572;SDS011;27286;47.870;19.006;2023-11-21T07:57:30;7.50;;;3.53;;
41572;SDS011;27286;47.870;19.006;2023-11-21T07:59:56;13.20;;;4.53;;
41572;SDS011;27286;47.870;19.006;2023-11-21T08:02:21;11.02;;;4.20;;
41572;SDS011;27286;47.870;19.006;2023-11-21T08:04:47;9.93;;;2.63;;
41572;SDS011;27286;47.870;19.006;2023-11-21T08:07:15;5.10;;;2.47;;
41572;SDS011;27286;47.870;19.006;2023-11-21T08:09:41;11.15;;;3.83;;
41572;SDS011;27286;47.870;19.006;2023-11-21T08:12:07;11.95;;;3.90;;
41572;SDS011;27286;47.870;19.006;2023-11-21T08:14:32;7.93;;;3.30;;
41572;SDS011;27286;47.870;19.006;2023-11-21T08:16:58;5.25;;;2.60;;
41572;SDS011;27286;47.870;19.006;2023-11-21T08:19:24;10.43;;;2.15;;
41572;SDS011;27286;47.870;19.006;2023-11-21T08:21:52;6.50;;;2.83;;
41572;SDS011;27286;47.870;19.006;2023-11-21T08:24:19;8.88;;;2.45;;
41572;SDS011;27286;47.870;19.006;2023-11-21T08:26:45;6.47;;;2.03;;
41572;SDS011;27286;47.870;19.006;2023-11-21T08:29:10;11.45;;;3.90;;
41572;SDS011;27286;47.870;19.006;2023-11-21T08:31:36;8.00;;;3.25;;
41572;SDS011;27286;47.870;19.006;2023-11-21T08:34:02;4.60;;;1.83;;
41572;SDS011;27286;47.870;19.006;2023-11-21T08:36:28;7.85;;;2.38;;
41572;SDS011;27286;47.870;19.006;2023-11-21T08:38:53;15.80;;;6.25;;
41572;SDS011;27286;47.870;19.006;2023-11-21T08:41:19;13.05;;;3.97;;
41572;SDS011;27286;47.870;19.006;2023-11-21T08:43:49;6.97;;;2.97;;
41572;SDS011;27286;47.870;19.006;2023-11-21T08:46:15;7.15;;;2.72;;
41572;SDS011;27286;47.870;19.006;2023-11-21T08:48:42;8.27;;;2.90;;
41572;SDS011;27286;47.870;19.006;2023-11-21T08:51:09;8.38;;;2.63;;
41572;SDS011;27286;47.870;19.006;2023-11-21T08:53:36;8.50;;;2.13;;
41572;SDS011;27286;47.870;19.006;2023-11-21T08:56:02;7.82;;;3.05;;
41572;SDS011;27286;47.870;19.006;2023-11-21T08:58:29;8.75;;;3.17;;
41572;SDS011;27286;47.870;19.006;2023-11-21T09:00:55;7.82;;;3.03;;
41572;SDS011;27286;47.870;19.006;2023-11-21T09:03:21;7.82;;;2.15;;
41572;SDS011;27286;47.870;19.006;2023-11-21T09:05:46;8.98;;;3.63;;
41572;SDS011;27286;47.870;19.006;2023-11-21T09:08:12;12.02;;;4.38;;
41572;SDS011;27286;47.870;19.006;2023-11-21T09:10:37;13.68;;;5.40;;
41572;SDS011;27286;47.870;19.006;2023-11-21T09:13:04;16.33;;;5.15;;
41572;SDS011;27286;47.870;19.006;2023-11-21T09:15:30;15.93;;;6.55;;
41572;SDS011;27286;47.870;19.006;2023-11-21T09:17:55;11.88;;;5.57;;
41572;SDS011;27286;47.870;19.006;2023-11-21T09:20:21;19.17;;;10.20;;
41572;SDS011;27286;47.870;19.006;2023-11-21T09:22:48;17.77;;;8.25;;
41572;SDS011;27286;47.870;19.006;2023-11-21T09:25:14;25.88;;;12.07;;
41572;SDS011;27286;47.870;19.006;2023-11-21T09:27:40;16.73;;;9.35;;
41572;SDS011;27286;47.870;19.006;2023-11-21T09:30:06;18.73;;;7.75;;
41572;SDS011;27286;47.870;19.006;2023-11-21T09:32:36;14.63;;;5.93;;
41572;SDS011;27286;47.870;19.006;2023-11-21T09:35:06;18.73;;;8.07;;
41572;SDS011;27286;47.870;19.006;2023-11-21T09:37:33;15.05;;;6.35;;
41572;SDS011;27286;47.870;19.006;2023-11-21T09:39:59;21.70;;;7.50;;
41572;SDS011;27286;47.870;19.006;2023-11-21T09:42:38;9.57;;;4.55;;
41572;SDS011;27286;47.870;19.006;2023-11-21T09:47:43;10.02;;;2.33;;
41572;SDS011;27286;47.870;19.006;2023-11-21T09:50:09;13.50;;;3.47;;
41572;SDS011;27286;47.870;19.006;2023-11-21T09:52:47;8.40;;;3.33;;
41572;SDS011;27286;47.870;19.006;2023-11-21T09:55:20;7.72;;;2.55;;
41572;SDS011;27286;47.870;19.006;2023-11-21T09:57:47;9.35;;;3.03;;
41572;SDS011;27286;47.870;19.006;2023-11-21T10:00:14;9.48;;;2.42;;
41572;SDS011;27286;47.870;19.006;2023-11-21T10:02:42;6.07;;;2.42;;
41572;SDS011;27286;47.870;19.006;2023-11-21T10:05:08;6.40;;;2.60;;
41572;SDS011;27286;47.870;19.006;2023-11-21T10:07:34;7.65;;;1.67;;
41572;SDS011;27286;47.870;19.006;2023-11-21T10:10:00;5.70;;;1.60;;
41572;SDS011;27286;47.870;19.006;2023-11-21T10:12:26;11.88;;;4.35;;
41572;SDS011;27286;47.870;19.006;2023-11-21T10:14:54;5.10;;;1.48;;
41572;SDS011;27286;47.870;19.006;2023-11-21T10:17:25;6.47;;;1.63;;
41572;SDS011;27286;47.870;19.006;2023-11-21T10:19:55;8.30;;;3.03;;
41572;SDS011;27286;47.870;19.006;2023-11-21T10:22:22;8.57;;;3.08;;
41572;SDS011;27286;47.870;19.006;2023-11-21T10:24:49;7.57;;;3.00;;
41572;SDS011;27286;47.870;19.006;2023-11-21T10:27:14;14.07;;;5.40;;
41572;SDS011;27286;47.870;19.006;2023-11-21T10:29:39;13.50;;;3.92;;
41572;SDS011;27286;47.870;19.006;2023-11-21T10:32:06;11.38;;;3.53;;
41572;SDS011;27286;47.870;19.006;2023-11-21T10:34:32;6.70;;;2.63;;
41572;SDS011;27286;47.870;19.006;2023-11-21T10:36:58;8.50;;;3.65;;
41572;SDS011;27286;47.870;19.006;2023-11-21T10:39:35;7.47;;;3.33;;
41572;SDS011;27286;47.870;19.006;2023-11-21T10:42:01;7.13;;;3.03;;
41572;SDS011;27286;47.870;19.006;2023-11-21T10:44:26;14.40;;;4.60;;
41572;SDS011;27286;47.870;19.006;2023-11-21T10:46:52;7.70;;;3.30;;
41572;SDS011;27286;47.870;19.006;2023-11-21T10:49:24;8.32;;;2.05;;
41572;SDS011;27286;47.870;19.006;2023-11-21T10:51:51;6.90;;;2.83;;
41572;SDS011;27286;47.870;19.006;2023-11-21T10:54:19;9.38;;;2.33;;
41572;SDS011;27286;47.870;19.006;2023-11-21T10:56:49;7.45;;;2.60;;
41572;SDS011;27286;47.870;19.006;2023-11-21T10:59:19;7.88;;;3.03;;
41572;SDS011;27286;47.870;19.006;2023-11-21T11:01:46;7.10;;;1.95;;
41572;SDS011;27286;47.870;19.006;2023-11-21T11:04:14;3.78;;;1.67;;
41572;SDS011;27286;47.870;19.006;2023-11-21T11:06:44;8.43;;;2.90;;
41572;SDS011;27286;47.870;19.006;2023-11-21T11:09:16;7.15;;;2.08;;
41572;SDS011;27286;47.870;19.006;2023-11-21T11:11:42;7.28;;;2.40;;
41572;SDS011;27286;47.870;19.006;2023-11-21T11:14:11;7.60;;;3.45;;
41572;SDS011;27286;47.870;19.006;2023-11-21T11:16:41;8.15;;;1.63;;
41572;SDS011;27286;47.870;19.006;2023-11-21T11:19:08;9.32;;;3.42;;
41572;SDS011;27286;47.870;19.006;2023-11-21T11:21:37;14.05;;;5.65;;
41572;SDS011;27286;47.870;19.006;2023-11-21T11:24:33;8.32;;;2.25;;
41572;SDS011;27286;47.870;19.006;2023-11-21T11:38:45;17.65;;;8.43;;
41572;SDS011;27286;47.870;19.006;2023-11-21T11:41:11;16.70;;;8.52;;
41572;SDS011;27286;47.870;19.006;2023-11-21T11:43:37;8.20;;;3.08;;
41572;SDS011;27286;47.870;19.006;2023-11-21T11:46:09;6.53;;;1.45;;
41572;SDS011;27286;47.870;19.006;2023-11-21T11:48:39;4.43;;;1.80;;
41572;SDS011;27286;47.870;19.006;2023-11-21T11:51:11;8.35;;;1.52;;
41572;SDS011;27286;47.870;19.006;2023-11-21T11:53:47;8.13;;;2.58;;
41572;SDS011;27286;47.870;19.006;2023-11-21T11:58:56;8.48;;;3.45;;
41572;SDS011;27286;47.870;19.006;2023-11-21T12:01:27;17.77;;;5.18;;
41572;SDS011;27286;47.870;19.006;2023-11-21T12:06:45;38.45;;;13.20;;
41572;SDS011;27286;47.870;19.006;2023-11-21T12:09:20;35.10;;;12.18;;
41572;SDS011;27286;47.870;19.006;2023-11-21T12:11:47;44.00;;;14.05;;
41572;SDS011;27286;47.870;19.006;2023-11-21T12:14:14;45.95;;;20.00;;
41572;SDS011;27286;47.870;19.006;2023-11-21T12:16:40;33.22;;;11.27;;
41572;SDS011;27286;47.870;19.006;2023-11-21T12:19:05;43.83;;;13.68;;
41572;SDS011;27286;47.870;19.006;2023-11-21T12:21:31;14.30;;;4.75;;
41572;SDS011;27286;47.870;19.006;2023-11-21T12:23:57;12.27;;;3.58;;
41572;SDS011;27286;47.870;19.006;2023-11-21T12:26:26;5.53;;;1.35;;
41572;SDS011;27286;47.870;19.006;2023-11-21T12:28:52;7.60;;;1.50;;
41572;SDS011;27286;47.870;19.006;2023-11-21T12:31:20;3.83;;;0.80;;
41572;SDS011;27286;47.870;19.006;2023-11-21T12:33:46;5.38;;;1.38;;
41572;SDS011;27286;47.870;19.006;2023-11-21T12:36:12;3.90;;;1.20;;
41572;SDS011;27286;47.870;19.006;2023-11-21T12:38:38;8.07;;;1.35;;
41572;SDS011;27286;47.870;19.006;2023-11-21T12:41:03;5.57;;;2.17;;
41572;SDS011;27286;47.870;19.006;2023-11-21T12:43:29;9.68;;;2.13;;
41572;SDS011;27286;47.870;19.006;2023-11-21T12:46:08;5.90;;;2.28;;
41572;SDS011;27286;47.870;19.006;2023-11-21T12:48:37;5.53;;;1.85;;
41572;SDS011;27286;47.870;19.006;2023-11-21T12:53:37;4.80;;;1.52;;
41572;SDS011;27286;47.870;19.006;2023-11-21T12:56:06;8.45;;;2.35;;
41572;SDS011;27286;47.870;19.006;2023-11-21T12:58:34;8.68;;;3.22;;
41572;SDS011;27286;47.870;19.006;2023-11-21T13:01:07;7.15;;;2.22;;
41572;SDS011;27286;47.870;19.006;2023-11-21T13:03:43;4.82;;;1.92;;
41572;SDS011;27286;47.870;19.006;2023-11-21T13:06:10;5.18;;;1.90;;
41572;SDS011;27286;47.870;19.006;2023-11-21T13:08:37;5.45;;;2.60;;
41572;SDS011;27286;47.870;19.006;2023-11-21T13:11:04;5.85;;;2.85;;
41572;SDS011;27286;47.870;19.006;2023-11-21T13:13:31;9.57;;;4.18;;
41572;SDS011;27286;47.870;19.006;2023-11-21T13:15:59;11.07;;;4.22;;
41572;SDS011;27286;47.870;19.006;2023-11-21T13:18:26;10.45;;;3.40;;
41572;SDS011;27286;47.870;19.006;2023-11-21T13:20:56;8.45;;;3.42;;
41572;SDS011;27286;47.870;19.006;2023-11-21T13:23:24;8.85;;;2.70;;
41572;SDS011;27286;47.870;19.006;2023-11-21T13:25:50;5.50;;;2.00;;
41572;SDS011;27286;47.870;19.006;2023-11-21T13:28:15;4.65;;;1.95;;
41572;SDS011;27286;47.870;19.006;2023-11-21T13:30:43;7.75;;;2.53;;
41572;SDS011;27286;47.870;19.006;2023-11-21T13:33:09;4.78;;;2.20;;
41572;SDS011;27286;47.870;19.006;2023-11-21T13:35:42;6.45;;;1.90;;
41572;SDS011;27286;47.870;19.006;2023-11-21T13:38:16;6.72;;;2.13;;
41572;SDS011;27286;47.870;19.006;2023-11-21T13:40:46;10.02;;;3.33;;
41572;SDS011;27286;47.870;19.006;2023-11-21T13:43:23;9.73;;;4.90;;
41572;SDS011;27286;47.870;19.006;2023-11-21T13:45:51;9.65;;;3.70;;
41572;SDS011;27286;47.870;19.006;2023-11-21T13:48:28;10.52;;;3.22;;
41572;SDS011;27286;47.870;19.006;2023-11-21T13:50:57;6.63;;;3.33;;
41572;SDS011;27286;47.870;19.006;2023-11-21T13:53:24;8.27;;;3.30;;
41572;SDS011;27286;47.870;19.006;2023-11-21T13:55:50;6.85;;;2.45;;
41572;SDS011;27286;47.870;19.006;2023-11-21T13:58:19;8.15;;;2.53;;
41572;SDS011;27286;47.870;19.006;2023-11-21T14:00:48;6.60;;;2.17;;
41572;SDS011;27286;47.870;19.006;2023-11-21T14:03:21;5.72;;;3.00;;
41572;SDS011;27286;47.870;19.006;2023-11-21T14:06:02;6.43;;;2.13;;
41572;SDS011;27286;47.870;19.006;2023-11-21T14:08:34;18.02;;;5.00;;
41572;SDS011;27286;47.870;19.006;2023-11-21T14:10:59;7.47;;;4.30;;
41572;SDS011;27286;47.870;19.006;2023-11-21T14:13:28;10.18;;;5.30;;
41572;SDS011;27286;47.870;19.006;2023-11-21T14:15:53;17.30;;;8.60;;
41572;SDS011;27286;47.870;19.006;2023-11-21T14:18:26;24.08;;;19.00;;
41572;SDS011;27286;47.870;19.006;2023-11-21T14:21:14;28.75;;;22.25;;
41572;SDS011;27286;47.870;19.006;2023-11-21T14:23:40;16.75;;;10.68;;
41572;SDS011;27286;47.870;19.006;2023-11-21T14:26:05;12.65;;;9.07;;
41572;SDS011;27286;47.870;19.006;2023-11-21T14:28:32;33.38;;;17.65;;
41572;SDS011;27286;47.870;19.006;2023-11-21T14:31:00;16.13;;;9.05;;
41572;SDS011;27286;47.870;19.006;2023-11-21T14:33:25;18.58;;;11.02;;
41572;SDS011;27286;47.870;19.006;2023-11-21T14:35:50;22.23;;;16.67;;
41572;SDS011;27286;47.870;19.006;2023-11-21T14:38:16;13.95;;;7.03;;
41572;SDS011;27286;47.870;19.006;2023-11-21T14:40:41;9.23;;;5.25;;
41572;SDS011;27286;47.870;19.006;2023-11-21T14:43:06;7.53;;;3.72;;
41572;SDS011;27286;47.870;19.006;2023-11-21T14:45:33;16.95;;;4.30;;
41572;SDS011;27286;47.870;19.006;2023-11-21T14:47:58;7.75;;;3.50;;
41572;SDS011;27286;47.870;19.006;2023-11-21T14:50:30;10.98;;;3.22;;
41572;SDS011;27286;47.870;19.006;2023-11-21T14:53:04;11.35;;;3.92;;
41572;SDS011;27286;47.870;19.006;2023-11-21T14:55:34;22.17;;;10.68;;
41572;SDS011;27286;47.870;19.006;2023-11-21T14:58:16;23.35;;;11.15;;
41572;SDS011;27286;47.870;19.006;2023-11-21T15:00:51;19.80;;;7.40;;
41572;SDS011;27286;47.870;19.006;2023-11-21T15:03:26;48.03;;;21.42;;
41572;SDS011;27286;47.870;19.006;2023-11-21T15:05:56;49.65;;;23.45;;
41572;SDS011;27286;47.870;19.006;2023-11-21T15:08:22;20.25;;;10.27;;
41572;SDS011;27286;47.870;19.006;2023-11-21T15:10:53;16.67;;;6.90;;
41572;SDS011;27286;47.870;19.006;2023-11-21T15:13:20;13.75;;;7.03;;
41572;SDS011;27286;47.870;19.006;2023-11-21T15:15:48;25.48;;;14.00;;
41572;SDS011;27286;47.870;19.006;2023-11-21T15:18:14;49.90;;;24.90;;
41572;SDS011;27286;47.870;19.006;2023-11-21T15:20:39;51.50;;;25.88;;
41572;SDS011;27286;47.870;19.006;2023-11-21T15:23:05;52.00;;;28.95;;
41572;SDS011;27286;47.870;19.006;2023-11-21T15:25:31;39.75;;;24.33;;
41572;SDS011;27286;47.870;19.006;2023-11-21T15:27:57;30.65;;;16.40;;
41572;SDS011;27286;47.870;19.006;2023-11-21T15:30:22;20.20;;;11.98;;
41572;SDS011;27286;47.870;19.006;2023-11-21T15:32:50;26.15;;;12.27;;
41572;SDS011;27286;47.870;19.006;2023-11-21T15:35:16;15.85;;;7.82;;
41572;SDS011;27286;47.870;19.006;2023-11-21T15:37:42;13.18;;;6.10;;
41572;SDS011;27286;47.870;19.006;2023-11-21T15:40:10;8.25;;;4.43;;
41572;SDS011;27286;47.870;19.006;2023-11-21T15:42:36;13.75;;;6.93;;
41572;SDS011;27286;47.870;19.006;2023-11-21T15:45:02;13.70;;;4.45;;
41572;SDS011;27286;47.870;19.006;2023-11-21T15:47:32;8.90;;;2.67;;